Time;durP1;ratioP1;P1;durP2;ratioP2;P2;SDS_P1;SDS_P2;PMS_P1;PMS_P2;Temp;Humidity;BMP_temperature;BMP_pressure;BME280_temperature;BME280_humidity;BME280_pressure;Samples;Min_cycle;Max_cycle;Signal;HPM_P1;HPM_P2
2023/07/09 19:09:24;;;;;;;0.00;0.00;;;27.00;69.30;;;;;;5072953;27;20902;-77
2023/07/09 19:11:54;;;;;;;0.38;0.38;;;26.60;71.80;;;;;;5055523;28;20052;-76
2023/07/09 19:14:29;;;;;;;0.08;0.08;;;26.50;69.40;;;;;;5053896;28;20029;-78
2023/07/09 19:17:03;;;;;;;0.08;0.00;;;26.40;70.40;;;;;;5062381;28;20035;-85
2023/07/09 19:19:30;;;;;;;0.10;0.10;;;26.30;72.30;;;;;;5058222;28;20029;-83
2023/07/09 19:21:57;;;;;;;0.00;0.00;;;26.20;72.80;;;;;;5061934;28;20040;-76
2023/07/09 19:24:30;;;;;;;0.15;0.15;;;26.20;72.90;;;;;;5054836;28;20070;-77
2023/07/09 19:27:04;;;;;;;0.00;0.00;;;26.10;72.90;;;;;;5055301;28;20032;-76
2023/07/09 19:29:30;;;;;;;0.00;0.00;;;26.10;71.80;;;;;;5059701;28;20021;-76
2023/07/09 19:32:00;;;;;;;;;;;26.00;72.70;;;;;;5063083;28;20036;-75
2023/07/09 19:34:29;;;;;;;0.00;0.00;;;26.00;73.80;;;;;;5058946;28;19958;-76
2023/07/09 19:37:02;;;;;;;0.00;0.00;;;25.90;72.80;;;;;;5057968;28;20036;-76
2023/07/09 19:39:39;;;;;;;0.00;0.00;;;25.90;71.90;;;;;;5053157;28;20370;-76
2023/07/09 19:42:23;;;;;;;0.00;0.00;;;25.80;72.60;;;;;;5055288;28;20024;-76
2023/07/09 19:44:52;;;;;;;0.00;0.00;;;25.80;72.20;;;;;;5059597;28;20063;-76
2023/07/09 19:47:25;;;;;;;0.00;0.00;;;25.80;72.40;;;;;;5062194;28;20028;-75
2023/07/09 19:49:54;;;;;;;0.00;0.00;;;25.70;72.20;;;;;;5061662;28;20017;-75
2023/07/09 19:52:26;;;;;;;0.13;0.13;;;25.70;72.80;;;;;;5056544;28;20028;-75
2023/07/09 19:54:53;;;;;;;0.00;0.00;;;25.70;72.70;;;;;;5054377;28;20049;-76
2023/07/09 19:57:19;;;;;;;0.00;0.00;;;25.70;73.50;;;;;;5059808;28;20031;-76
2023/07/09 19:59:45;;;;;;;0.25;0.10;;;25.70;73.10;;;;;;5053946;28;20099;-76
2023/07/09 20:02:24;;;;;;;0.17;0.00;;;25.60;73.30;;;;;;5057618;28;20438;-76
2023/07/09 20:04:51;;;;;;;0.00;0.00;;;25.60;73.80;;;;;;5053162;28;20025;-75
2023/07/09 20:07:17;;;;;;;0.00;0.00;;;25.60;74.00;;;;;;5068054;28;20775;-76
2023/07/09 20:09:44;;;;;;;;;;;25.60;74.30;;;;;;5056186;28;20016;-76
2023/07/09 20:12:25;;;;;;;0.05;0.05;;;25.50;74.50;;;;;;5054791;28;19999;-75
2023/07/09 20:14:53;;;;;;;0.03;0.03;;;25.50;75.40;;;;;;5052757;28;20134;-75
2023/07/09 20:17:21;;;;;;;0.00;0.00;;;25.40;74.80;;;;;;5057880;28;20543;-75
2023/07/09 20:19:49;;;;;;;0.00;0.00;;;25.40;75.00;;;;;;5049058;28;20673;-75
2023/07/09 20:22:24;;;;;;;0.05;0.05;;;25.30;75.70;;;;;;5043218;28;20108;-75
2023/07/09 20:24:53;;;;;;;0.00;0.00;;;25.30;75.90;;;;;;5042383;28;20017;-75
2023/07/09 20:27:19;;;;;;;0.00;0.00;;;25.20;75.10;;;;;;5047569;28;20021;-75
2023/07/09 20:29:51;;;;;;;;;;;25.20;75.00;;;;;;5040334;28;20063;-75
2023/07/09 20:32:20;;;;;;;0.38;0.32;;;25.10;75.60;;;;;;5039488;28;19991;-76
2023/07/09 20:34:53;;;;;;;0.00;0.00;;;25.10;75.40;;;;;;5039777;28;20343;-76
2023/07/09 20:37:21;;;;;;;0.00;0.00;;;25.10;74.70;;;;;;5039489;28;20466;-77
2023/07/09 20:39:49;;;;;;;0.00;0.00;;;25.10;76.80;;;;;;5038778;28;20036;-76
2023/07/09 20:42:16;;;;;;;0.00;0.00;;;25.10;76.40;;;;;;5041338;28;20039;-75
2023/07/09 20:44:44;;;;;;;0.00;0.00;;;25.10;76.10;;;;;;5040837;28;20021;-75
2023/07/09 20:47:19;;;;;;;0.15;0.08;;;25.10;74.50;;;;;;5039646;28;20113;-75
2023/07/09 20:49:47;;;;;;;0.10;0.10;;;25.10;73.80;;;;;;5035706;28;20017;-74
2023/07/09 20:52:14;;;;;;;0.00;0.00;;;24.90;75.00;;;;;;5039985;28;20103;-76
2023/07/09 20:54:43;;;;;;;0.28;0.10;;;24.90;75.60;;;;;;5040617;28;20036;-76
2023/07/09 20:57:23;;;;;;;0.00;0.00;;;24.80;75.80;;;;;;5039211;28;20029;-75
2023/07/09 20:59:52;;;;;;;0.00;0.00;;;24.80;75.20;;;;;;5042367;28;20021;-75
2023/07/09 21:02:20;;;;;;;0.00;0.00;;;24.70;76.20;;;;;;5045309;28;20036;-75
2023/07/09 21:04:46;;;;;;;0.00;0.00;;;24.60;78.10;;;;;;5035134;28;20067;-75
2023/07/09 21:07:12;;;;;;;;;;;24.60;77.10;;;;;;5041814;28;20025;-75
2023/07/09 21:09:45;;;;;;;0.00;0.00;;;24.60;77.00;;;;;;5044441;28;19912;-75
2023/07/09 21:12:15;;;;;;;0.00;0.00;;;24.60;77.30;;;;;;5041448;28;20025;-76
2023/07/09 21:14:43;;;;;;;0.00;0.00;;;24.40;76.50;;;;;;5041650;28;20017;-75
2023/07/09 21:17:17;;;;;;;0.00;0.00;;;24.30;76.40;;;;;;5034453;28;20062;-75
2023/07/09 21:19:44;;;;;;;0.00;0.00;;;24.30;77.20;;;;;;5043212;28;20052;-75
2023/07/09 21:22:17;;;;;;;0.47;0.05;;;24.30;77.60;;;;;;5036630;28;20059;-75
2023/07/09 21:24:45;;;;;;;0.00;0.00;;;24.20;78.00;;;;;;5043941;28;20615;-75
2023/07/09 21:27:11;;;;;;;0.05;0.05;;;24.10;79.50;;;;;;5039721;28;20025;-75
2023/07/09 21:29:43;;;;;;;0.00;0.00;;;24.20;79.10;;;;;;5035157;28;20024;-75
2023/07/09 21:32:22;;;;;;;0.00;0.00;;;24.10;79.20;;;;;;5041179;28;20029;-75
2023/07/09 21:34:55;;;;;;;0.00;0.00;;;24.00;79.60;;;;;;5038666;28;20074;-76
2023/07/09 21:37:23;;;;;;;0.00;0.00;;;24.00;81.60;;;;;;5037603;28;20032;-75
2023/07/09 21:39:50;;;;;;;0.10;0.10;;;24.00;77.80;;;;;;5039462;28;20029;-76
2023/07/09 21:42:18;;;;;;;0.00;0.00;;;24.00;78.00;;;;;;5035249;28;20115;-75
2023/07/09 21:44:47;;;;;;;0.00;0.00;;;24.00;77.80;;;;;;5045952;28;20032;-75
2023/07/09 21:47:17;;;;;;;0.00;0.00;;;23.90;78.50;;;;;;5040681;28;20031;-75
2023/07/09 21:49:47;;;;;;;0.00;0.00;;;23.90;77.40;;;;;;5038467;28;20032;-75
2023/07/09 21:52:20;;;;;;;0.00;0.00;;;23.80;76.70;;;;;;5037770;28;20017;-74
2023/07/09 21:54:49;;;;;;;0.00;0.00;;;23.80;77.10;;;;;;5037800;28;20052;-75
2023/07/09 21:57:16;;;;;;;0.00;0.00;;;23.80;77.90;;;;;;5044318;28;20950;-75
2023/07/09 21:59:45;;;;;;;0.00;0.00;;;23.80;77.40;;;;;;5036949;28;20021;-75
2023/07/09 22:02:28;;;;;;;0.00;0.00;;;23.70;77.40;;;;;;5044582;28;20025;-74
2023/07/09 22:04:55;;;;;;;0.00;0.00;;;23.70;77.60;;;;;;5042258;28;20017;-74
2023/07/09 22:07:23;;;;;;;0.00;0.00;;;23.70;77.60;;;;;;5034706;28;20086;-74
2023/07/09 22:09:54;;;;;;;0.00;0.00;;;23.60;78.30;;;;;;5037610;28;20028;-74
2023/07/09 22:12:21;;;;;;;0.00;0.00;;;23.60;78.50;;;;;;5037301;28;20140;-74
2023/07/09 22:14:52;;;;;;;0.10;0.10;;;23.60;78.20;;;;;;5036663;28;20374;-74
2023/07/09 22:17:26;;;;;;;0.00;0.00;;;23.60;79.40;;;;;;5040932;28;20078;-74
2023/07/09 22:20:05;;;;;;;0.00;0.00;;;23.60;77.50;;;;;;5044234;28;20021;-75
2023/07/09 22:22:34;;;;;;;0.00;0.00;;;23.60;78.00;;;;;;5033663;28;20024;-74
2023/07/09 22:25:03;;;;;;;0.00;0.00;;;23.50;78.60;;;;;;5038272;28;20620;-74
2023/07/09 22:27:32;;;;;;;0.10;0.10;;;23.50;78.50;;;;;;5038397;28;20040;-75
2023/07/09 22:29:58;;;;;;;0.10;0.00;;;23.50;78.90;;;;;;5037719;28;20016;-75
2023/07/09 22:32:30;;;;;;;0.00;0.00;;;23.50;78.60;;;;;;5040563;28;20174;-75
2023/07/09 22:34:59;;;;;;;0.10;0.00;;;23.40;78.20;;;;;;5033870;28;20029;-74
2023/07/09 22:37:24;;;;;;;0.28;0.28;;;23.40;78.10;;;;;;5038160;28;20086;-75
2023/07/09 22:39:51;;;;;;;0.47;0.47;;;23.30;78.30;;;;;;5041034;28;20087;-74
2023/07/09 22:42:17;;;;;;;0.00;0.00;;;23.30;78.90;;;;;;5041182;28;20104;-74
2023/07/09 22:44:44;;;;;;;0.30;0.30;;;23.40;77.90;;;;;;5038562;28;20017;-75
2023/07/09 22:47:18;;;;;;;0.00;0.00;;;23.40;77.50;;;;;;5038759;28;20083;-74
2023/07/09 22:49:46;;;;;;;0.00;0.00;;;23.40;78.40;;;;;;5043118;28;20009;-74
2023/07/09 22:52:16;;;;;;;0.40;0.10;;;23.40;78.60;;;;;;5037253;28;20032;-75
2023/07/09 22:54:47;;;;;;;0.00;0.00;;;23.40;78.80;;;;;;5036873;28;20470;-75
2023/07/09 22:57:17;;;;;;;0.00;0.00;;;23.40;77.90;;;;;;5036214;28;20497;-75
2023/07/09 22:59:45;;;;;;;0.00;0.00;;;23.30;78.10;;;;;;5038900;28;20028;-75
2023/07/09 23:02:15;;;;;;;0.20;0.20;;;23.30;78.90;;;;;;5041393;28;20025;-75
2023/07/09 23:04:41;;;;;;;0.05;0.05;;;23.30;79.60;;;;;;5042791;28;20100;-74
2023/07/09 23:07:11;;;;;;;0.00;0.00;;;23.30;79.20;;;;;;5033958;28;20024;-74
2023/07/09 23:09:38;;;;;;;0.00;0.00;;;23.30;78.70;;;;;;5036753;28;20021;-75
2023/07/09 23:12:11;;;;;;;0.00;0.00;;;23.40;77.20;;;;;;5033234;28;20028;-75
2023/07/09 23:14:42;;;;;;;0.00;0.00;;;23.40;78.60;;;;;;5036202;28;20013;-74
2023/07/09 23:17:13;;;;;;;0.00;0.00;;;23.50;78.80;;;;;;5037249;28;20017;-74
2023/07/09 23:19:38;;;;;;;0.00;0.00;;;23.40;79.10;;;;;;5040121;28;20028;-74
2023/07/09 23:22:04;;;;;;;0.00;0.00;;;23.40;78.90;;;;;;5040620;28;20083;-74
2023/07/09 23:24:35;;;;;;;0.00;0.00;;;23.30;79.60;;;;;;5037676;28;20013;-75
2023/07/09 23:27:01;;;;;;;0.00;0.00;;;23.30;79.50;;;;;;5037665;28;20677;-75
2023/07/09 23:29:31;;;;;;;0.00;0.00;;;23.30;79.30;;;;;;5033627;28;20047;-74
2023/07/09 23:32:03;;;;;;;0.75;0.20;;;23.20;79.40;;;;;;5038442;28;20736;-75
2023/07/09 23:34:30;;;;;;;0.00;0.00;;;23.20;79.70;;;;;;5031565;28;20017;-74
2023/07/09 23:36:55;;;;;;;0.00;0.00;;;23.20;80.10;;;;;;5037141;28;20025;-75
2023/07/09 23:39:28;;;;;;;0.00;0.00;;;23.10;79.90;;;;;;5031515;28;20044;-75
2023/07/09 23:41:56;;;;;;;0.00;0.00;;;23.10;79.50;;;;;;5037276;28;20113;-74
2023/07/09 23:44:26;;;;;;;0.00;0.00;;;23.10;79.80;;;;;;5037398;28;20055;-74
2023/07/09 23:46:52;;;;;;;0.05;0.05;;;23.10;79.60;;;;;;5040294;28;20465;-75
2023/07/09 23:49:28;;;;;;;0.10;0.10;;;23.00;79.30;;;;;;5037377;28;20087;-74
2023/07/09 23:51:58;;;;;;;0.00;0.00;;;23.00;80.00;;;;;;5035829;28;20504;-74
2023/07/09 23:54:26;;;;;;;0.03;0.03;;;22.90;79.80;;;;;;5035730;28;20028;-74
2023/07/09 23:56:53;;;;;;;0.00;0.00;;;22.90;80.10;;;;;;5041681;28;20045;-73
2023/07/09 23:59:29;;;;;;;0.00;0.00;;;22.90;80.40;;;;;;5037630;28;20048;-75
